TAF Text Data
IDs:
Format:
Raw Decoded Include METAR

Data at: 1228 UTC 23 Jun 2021

KBOS 231128Z 2312/2418 31010KT P6SM FEW250
  FM231900 15010KT P6SM FEW250
  FM232300 19009KT P6SM FEW250
  FM240400 25003KT P6SM FEW250
  FM241500 12007KT P6SM FEW250